<?xml version="1.0" encoding="UTF-8" standalone="no" ?>
<gpx xmlns="http://www.topografix.com/GPX/1/1" xmlns:xsi="http://www.w3.org/2001/XMLSchema-instance" xsi:schemaLocation="http://www.topografix.com/GPX/1/1 http://www.topografix.com/GPX/1/1/gpx.xsd" version="1.1" creator="VisuGPX - https://www.visugpx.com">
  <metadata>
    <name>St Pierre de Boeuf-Malleval</name>
    <desc><![CDATA[Bibliothèque Ripatons. De St Pierre à Malleval en passant par Maclas et Bessey]]></desc>
  </metadata>
  <trk>
    <name><![CDATA[St Pierre de Boeuf-Malleval]]></name>
    <trkseg>
      <trkpt lat="45.38629" lon="4.74811">
        <ele>144</ele>
        <time>2016-01-06T18:58:54+01:00</time>
      </trkpt>
      <trkpt lat="45.38611" lon="4.74853">
        <ele>143</ele>
        <time>2016-01-06T18:58:59+01:00</time>
      </trkpt>
      <trkpt lat="45.38583" lon="4.74913">
        <ele>142</ele>
        <time>2016-01-06T18:59:04+01:00</time>
      </trkpt>
      <trkpt lat="45.38525" lon="4.74946">
        <ele>143</ele>
        <time>2016-01-06T18:59:09+01:00</time>
      </trkpt>
      <trkpt lat="45.38482" lon="4.74963">
        <ele>145</ele>
        <time>2016-01-06T18:59:14+01:00</time>
      </trkpt>
      <trkpt lat="45.38449" lon="4.75">
        <ele>145</ele>
        <time>2016-01-06T18:59:19+01:00</time>
      </trkpt>
      <trkpt lat="45.3842" lon="4.75008">
        <ele>146</ele>
        <time>2016-01-06T18:59:24+01:00</time>
      </trkpt>
      <trkpt lat="45.38388" lon="4.75046">
        <ele>147</ele>
        <time>2016-01-06T18:59:29+01:00</time>
      </trkpt>
      <trkpt lat="45.38352" lon="4.75074">
        <ele>148</ele>
        <time>2016-01-06T18:59:34+01:00</time>
      </trkpt>
      <trkpt lat="45.3832" lon="4.75141">
        <ele>145</ele>
        <time>2016-01-06T18:59:39+01:00</time>
      </trkpt>
      <trkpt lat="45.38251" lon="4.75182">
        <ele>143</ele>
        <time>2016-01-06T18:59:44+01:00</time>
      </trkpt>
      <trkpt lat="45.38173" lon="4.75206">
        <ele>145</ele>
        <time>2016-01-06T18:59:49+01:00</time>
      </trkpt>
      <trkpt lat="45.38116" lon="4.75227">
        <ele>143</ele>
        <time>2016-01-06T18:59:54+01:00</time>
      </trkpt>
      <trkpt lat="45.38033" lon="4.75196">
        <ele>143</ele>
        <time>2016-01-06T18:59:59+01:00</time>
      </trkpt>
      <trkpt lat="45.38026" lon="4.75182">
        <ele>144</ele>
        <time>2016-01-06T19:00:04+01:00</time>
      </trkpt>
      <trkpt lat="45.37883" lon="4.7513">
        <ele>143</ele>
        <time>2016-01-06T19:00:09+01:00</time>
      </trkpt>
      <trkpt lat="45.37716" lon="4.751">
        <ele>139</ele>
        <time>2016-01-06T19:00:14+01:00</time>
      </trkpt>
      <trkpt lat="45.37517" lon="4.75021">
        <ele>141</ele>
        <time>2016-01-06T19:00:19+01:00</time>
      </trkpt>
      <trkpt lat="45.37401" lon="4.75001">
        <ele>142</ele>
        <time>2016-01-06T19:00:24+01:00</time>
      </trkpt>
      <trkpt lat="45.3728" lon="4.75045">
        <ele>148</ele>
        <time>2016-01-06T19:00:29+01:00</time>
      </trkpt>
      <trkpt lat="45.37179" lon="4.75123">
        <ele>147</ele>
        <time>2016-01-06T19:00:34+01:00</time>
      </trkpt>
      <trkpt lat="45.3717" lon="4.75125">
        <ele>148</ele>
        <time>2016-01-06T19:00:39+01:00</time>
      </trkpt>
      <trkpt lat="45.37159" lon="4.75096">
        <ele>155</ele>
        <time>2016-01-06T19:00:44+01:00</time>
      </trkpt>
      <trkpt lat="45.37061" lon="4.75163">
        <ele>152</ele>
        <time>2016-01-06T19:00:49+01:00</time>
      </trkpt>
      <trkpt lat="45.37061" lon="4.75134">
        <ele>160</ele>
        <time>2016-01-06T19:00:54+01:00</time>
      </trkpt>
      <trkpt lat="45.37058" lon="4.75124">
        <ele>163</ele>
        <time>2016-01-06T19:00:59+01:00</time>
      </trkpt>
      <trkpt lat="45.37018" lon="4.75101">
        <ele>175</ele>
        <time>2016-01-06T19:01:04+01:00</time>
      </trkpt>
      <trkpt lat="45.36989" lon="4.75038">
        <ele>192</ele>
        <time>2016-01-06T19:01:09+01:00</time>
      </trkpt>
      <trkpt lat="45.36932" lon="4.75048">
        <ele>199</ele>
        <time>2016-01-06T19:01:14+01:00</time>
      </trkpt>
      <trkpt lat="45.36919" lon="4.75037">
        <ele>203</ele>
        <time>2016-01-06T19:01:19+01:00</time>
      </trkpt>
      <trkpt lat="45.36925" lon="4.75007">
        <ele>210</ele>
        <time>2016-01-06T19:01:24+01:00</time>
      </trkpt>
      <trkpt lat="45.36804" lon="4.74982">
        <ele>229</ele>
        <time>2016-01-06T19:01:29+01:00</time>
      </trkpt>
      <trkpt lat="45.36805" lon="4.74947">
        <ele>239</ele>
        <time>2016-01-06T19:01:34+01:00</time>
      </trkpt>
      <trkpt lat="45.36865" lon="4.74836">
        <ele>259</ele>
        <time>2016-01-06T19:01:39+01:00</time>
      </trkpt>
      <trkpt lat="45.3684" lon="4.7478">
        <ele>270</ele>
        <time>2016-01-06T19:01:44+01:00</time>
      </trkpt>
      <trkpt lat="45.36763" lon="4.74659">
        <ele>286</ele>
        <time>2016-01-06T19:01:49+01:00</time>
      </trkpt>
      <trkpt lat="45.36731" lon="4.74568">
        <ele>294</ele>
        <time>2016-01-06T19:01:54+01:00</time>
      </trkpt>
      <trkpt lat="45.3663" lon="4.74593">
        <ele>295</ele>
        <time>2016-01-06T19:01:59+01:00</time>
      </trkpt>
      <trkpt lat="45.36595" lon="4.74329">
        <ele>322</ele>
        <time>2016-01-06T19:02:04+01:00</time>
      </trkpt>
      <trkpt lat="45.3656" lon="4.74218">
        <ele>330</ele>
        <time>2016-01-06T19:02:09+01:00</time>
      </trkpt>
      <trkpt lat="45.36513" lon="4.74161">
        <ele>332</ele>
        <time>2016-01-06T19:02:14+01:00</time>
      </trkpt>
      <trkpt lat="45.36531" lon="4.73966">
        <ele>330</ele>
        <time>2016-01-06T19:02:19+01:00</time>
      </trkpt>
      <trkpt lat="45.36425" lon="4.73943">
        <ele>325</ele>
        <time>2016-01-06T19:02:24+01:00</time>
      </trkpt>
      <trkpt lat="45.36363" lon="4.7393">
        <ele>323</ele>
        <time>2016-01-06T19:02:29+01:00</time>
      </trkpt>
      <trkpt lat="45.3634" lon="4.73907">
        <ele>323</ele>
        <time>2016-01-06T19:02:34+01:00</time>
      </trkpt>
      <trkpt lat="45.36357" lon="4.73851">
        <ele>324</ele>
        <time>2016-01-06T19:02:39+01:00</time>
      </trkpt>
      <trkpt lat="45.3634" lon="4.73805">
        <ele>326</ele>
        <time>2016-01-06T19:02:44+01:00</time>
      </trkpt>
      <trkpt lat="45.36337" lon="4.73719">
        <ele>330</ele>
        <time>2016-01-06T19:02:49+01:00</time>
      </trkpt>
      <trkpt lat="45.36258" lon="4.73712">
        <ele>331</ele>
        <time>2016-01-06T19:02:54+01:00</time>
      </trkpt>
      <trkpt lat="45.36201" lon="4.73708">
        <ele>330</ele>
        <time>2016-01-06T19:02:59+01:00</time>
      </trkpt>
      <trkpt lat="45.36123" lon="4.73655">
        <ele>332</ele>
        <time>2016-01-06T19:03:04+01:00</time>
      </trkpt>
      <trkpt lat="45.36072" lon="4.7363">
        <ele>333</ele>
        <time>2016-01-06T19:03:09+01:00</time>
      </trkpt>
      <trkpt lat="45.36026" lon="4.73579">
        <ele>334</ele>
        <time>2016-01-06T19:03:14+01:00</time>
      </trkpt>
      <trkpt lat="45.35963" lon="4.73548">
        <ele>334</ele>
        <time>2016-01-06T19:03:19+01:00</time>
      </trkpt>
      <trkpt lat="45.35974" lon="4.73473">
        <ele>338</ele>
        <time>2016-01-06T19:03:24+01:00</time>
      </trkpt>
      <trkpt lat="45.35949" lon="4.73358">
        <ele>341</ele>
        <time>2016-01-06T19:03:29+01:00</time>
      </trkpt>
      <trkpt lat="45.35934" lon="4.73256">
        <ele>340</ele>
        <time>2016-01-06T19:03:34+01:00</time>
      </trkpt>
      <trkpt lat="45.35949" lon="4.7323">
        <ele>341</ele>
        <time>2016-01-06T19:03:39+01:00</time>
      </trkpt>
      <trkpt lat="45.35947" lon="4.7315">
        <ele>342</ele>
        <time>2016-01-06T19:03:44+01:00</time>
      </trkpt>
      <trkpt lat="45.35965" lon="4.73061">
        <ele>346</ele>
        <time>2016-01-06T19:03:49+01:00</time>
      </trkpt>
      <trkpt lat="45.35945" lon="4.72919">
        <ele>350</ele>
        <time>2016-01-06T19:03:54+01:00</time>
      </trkpt>
      <trkpt lat="45.35904" lon="4.72794">
        <ele>355</ele>
        <time>2016-01-06T19:03:59+01:00</time>
      </trkpt>
      <trkpt lat="45.35857" lon="4.72589">
        <ele>362</ele>
        <time>2016-01-06T19:04:04+01:00</time>
      </trkpt>
      <trkpt lat="45.35884" lon="4.72453">
        <ele>367</ele>
        <time>2016-01-06T19:04:09+01:00</time>
      </trkpt>
      <trkpt lat="45.35869" lon="4.72348">
        <ele>367</ele>
        <time>2016-01-06T19:04:14+01:00</time>
      </trkpt>
      <trkpt lat="45.35899" lon="4.7226">
        <ele>364</ele>
        <time>2016-01-06T19:04:19+01:00</time>
      </trkpt>
      <trkpt lat="45.35943" lon="4.72202">
        <ele>360</ele>
        <time>2016-01-06T19:04:24+01:00</time>
      </trkpt>
      <trkpt lat="45.35977" lon="4.7203">
        <ele>355</ele>
        <time>2016-01-06T19:04:29+01:00</time>
      </trkpt>
      <trkpt lat="45.35972" lon="4.71951">
        <ele>356</ele>
        <time>2016-01-06T19:04:34+01:00</time>
      </trkpt>
      <trkpt lat="45.35943" lon="4.71923">
        <ele>355</ele>
        <time>2016-01-06T19:04:39+01:00</time>
      </trkpt>
      <trkpt lat="45.359" lon="4.71927">
        <ele>352</ele>
        <time>2016-01-06T19:04:44+01:00</time>
      </trkpt>
      <trkpt lat="45.35806" lon="4.71838">
        <ele>353</ele>
        <time>2016-01-06T19:04:49+01:00</time>
      </trkpt>
      <trkpt lat="45.35807" lon="4.71785">
        <ele>357</ele>
        <time>2016-01-06T19:04:54+01:00</time>
      </trkpt>
      <trkpt lat="45.3579" lon="4.71756">
        <ele>358</ele>
        <time>2016-01-06T19:04:59+01:00</time>
      </trkpt>
      <trkpt lat="45.35784" lon="4.7173">
        <ele>359</ele>
        <time>2016-01-06T19:05:04+01:00</time>
      </trkpt>
      <trkpt lat="45.35748" lon="4.71628">
        <ele>364</ele>
        <time>2016-01-06T19:05:09+01:00</time>
      </trkpt>
      <trkpt lat="45.35688" lon="4.71584">
        <ele>362</ele>
        <time>2016-01-06T19:05:14+01:00</time>
      </trkpt>
      <trkpt lat="45.35607" lon="4.71505">
        <ele>368</ele>
        <time>2016-01-06T19:05:19+01:00</time>
      </trkpt>
      <trkpt lat="45.35524" lon="4.71422">
        <ele>372</ele>
        <time>2016-01-06T19:05:24+01:00</time>
      </trkpt>
      <trkpt lat="45.35478" lon="4.71403">
        <ele>371</ele>
        <time>2016-01-06T19:05:29+01:00</time>
      </trkpt>
      <trkpt lat="45.35448" lon="4.71358">
        <ele>369</ele>
        <time>2016-01-06T19:05:34+01:00</time>
      </trkpt>
      <trkpt lat="45.3538" lon="4.71029">
        <ele>364</ele>
        <time>2016-01-06T19:05:39+01:00</time>
      </trkpt>
      <trkpt lat="45.35392" lon="4.7091">
        <ele>367</ele>
        <time>2016-01-06T19:05:44+01:00</time>
      </trkpt>
      <trkpt lat="45.35387" lon="4.7084">
        <ele>367</ele>
        <time>2016-01-06T19:05:49+01:00</time>
      </trkpt>
      <trkpt lat="45.35355" lon="4.7077">
        <ele>368</ele>
        <time>2016-01-06T19:05:54+01:00</time>
      </trkpt>
      <trkpt lat="45.35337" lon="4.70711">
        <ele>369</ele>
        <time>2016-01-06T19:05:59+01:00</time>
      </trkpt>
      <trkpt lat="45.35383" lon="4.70667">
        <ele>375</ele>
        <time>2016-01-06T19:06:04+01:00</time>
      </trkpt>
      <trkpt lat="45.35417" lon="4.70541">
        <ele>380</ele>
        <time>2016-01-06T19:06:09+01:00</time>
      </trkpt>
      <trkpt lat="45.35407" lon="4.70525">
        <ele>379</ele>
        <time>2016-01-06T19:06:14+01:00</time>
      </trkpt>
      <trkpt lat="45.35411" lon="4.70479">
        <ele>380</ele>
        <time>2016-01-06T19:06:19+01:00</time>
      </trkpt>
      <trkpt lat="45.35365" lon="4.70433">
        <ele>381</ele>
        <time>2016-01-06T19:06:24+01:00</time>
      </trkpt>
      <trkpt lat="45.3528" lon="4.70288">
        <ele>383</ele>
        <time>2016-01-06T19:06:29+01:00</time>
      </trkpt>
      <trkpt lat="45.35295" lon="4.70178">
        <ele>386</ele>
        <time>2016-01-06T19:06:34+01:00</time>
      </trkpt>
      <trkpt lat="45.35264" lon="4.70062">
        <ele>385</ele>
        <time>2016-01-06T19:06:39+01:00</time>
      </trkpt>
      <trkpt lat="45.35256" lon="4.69999">
        <ele>388</ele>
        <time>2016-01-06T19:06:44+01:00</time>
      </trkpt>
      <trkpt lat="45.35257" lon="4.69899">
        <ele>386</ele>
        <time>2016-01-06T19:06:49+01:00</time>
      </trkpt>
      <trkpt lat="45.35274" lon="4.69853">
        <ele>387</ele>
        <time>2016-01-06T19:06:54+01:00</time>
      </trkpt>
      <trkpt lat="45.3527" lon="4.69763">
        <ele>386</ele>
        <time>2016-01-06T19:06:59+01:00</time>
      </trkpt>
      <trkpt lat="45.35281" lon="4.69736">
        <ele>388</ele>
        <time>2016-01-06T19:07:04+01:00</time>
      </trkpt>
      <trkpt lat="45.35221" lon="4.69619">
        <ele>396</ele>
        <time>2016-01-06T19:07:09+01:00</time>
      </trkpt>
      <trkpt lat="45.35182" lon="4.69624">
        <ele>397</ele>
        <time>2016-01-06T19:07:14+01:00</time>
      </trkpt>
      <trkpt lat="45.35141" lon="4.69603">
        <ele>400</ele>
        <time>2016-01-06T19:07:19+01:00</time>
      </trkpt>
      <trkpt lat="45.35174" lon="4.69545">
        <ele>404</ele>
        <time>2016-01-06T19:07:24+01:00</time>
      </trkpt>
      <trkpt lat="45.35192" lon="4.69515">
        <ele>405</ele>
        <time>2016-01-06T19:07:29+01:00</time>
      </trkpt>
      <trkpt lat="45.35275" lon="4.69346">
        <ele>405</ele>
        <time>2016-01-06T19:07:34+01:00</time>
      </trkpt>
      <trkpt lat="45.35333" lon="4.69178">
        <ele>405</ele>
        <time>2016-01-06T19:07:39+01:00</time>
      </trkpt>
      <trkpt lat="45.35343" lon="4.69092">
        <ele>405</ele>
        <time>2016-01-06T19:07:44+01:00</time>
      </trkpt>
      <trkpt lat="45.35422" lon="4.68963">
        <ele>401</ele>
        <time>2016-01-06T19:07:49+01:00</time>
      </trkpt>
      <trkpt lat="45.35493" lon="4.68899">
        <ele>396</ele>
        <time>2016-01-06T19:07:54+01:00</time>
      </trkpt>
      <trkpt lat="45.35528" lon="4.68708">
        <ele>397</ele>
        <time>2016-01-06T19:07:59+01:00</time>
      </trkpt>
      <trkpt lat="45.35557" lon="4.68618">
        <ele>397</ele>
        <time>2016-01-06T19:08:04+01:00</time>
      </trkpt>
      <trkpt lat="45.35567" lon="4.68554">
        <ele>397</ele>
        <time>2016-01-06T19:08:09+01:00</time>
      </trkpt>
      <trkpt lat="45.35559" lon="4.68462">
        <ele>398</ele>
        <time>2016-01-06T19:08:14+01:00</time>
      </trkpt>
      <trkpt lat="45.35588" lon="4.68325">
        <ele>402</ele>
        <time>2016-01-06T19:08:19+01:00</time>
      </trkpt>
      <trkpt lat="45.35594" lon="4.6826">
        <ele>404</ele>
        <time>2016-01-06T19:08:24+01:00</time>
      </trkpt>
      <trkpt lat="45.35655" lon="4.68086">
        <ele>412</ele>
        <time>2016-01-06T19:08:29+01:00</time>
      </trkpt>
      <trkpt lat="45.35694" lon="4.67927">
        <ele>419</ele>
        <time>2016-01-06T19:08:34+01:00</time>
      </trkpt>
      <trkpt lat="45.3573" lon="4.67855">
        <ele>421</ele>
        <time>2016-01-06T19:08:39+01:00</time>
      </trkpt>
      <trkpt lat="45.35781" lon="4.67687">
        <ele>429</ele>
        <time>2016-01-06T19:08:44+01:00</time>
      </trkpt>
      <trkpt lat="45.35818" lon="4.67561">
        <ele>438</ele>
        <time>2016-01-06T19:08:49+01:00</time>
      </trkpt>
      <trkpt lat="45.35845" lon="4.67446">
        <ele>442</ele>
        <time>2016-01-06T19:08:54+01:00</time>
      </trkpt>
      <trkpt lat="45.35891" lon="4.67376">
        <ele>445</ele>
        <time>2016-01-06T19:08:59+01:00</time>
      </trkpt>
      <trkpt lat="45.36008" lon="4.67516">
        <ele>438</ele>
        <time>2016-01-06T19:09:04+01:00</time>
      </trkpt>
      <trkpt lat="45.3608" lon="4.6755">
        <ele>440</ele>
        <time>2016-01-06T19:09:09+01:00</time>
      </trkpt>
      <trkpt lat="45.3617" lon="4.67554">
        <ele>439</ele>
        <time>2016-01-06T19:09:14+01:00</time>
      </trkpt>
      <trkpt lat="45.36244" lon="4.67576">
        <ele>437</ele>
        <time>2016-01-06T19:09:19+01:00</time>
      </trkpt>
      <trkpt lat="45.36326" lon="4.67649">
        <ele>433</ele>
        <time>2016-01-06T19:09:24+01:00</time>
      </trkpt>
      <trkpt lat="45.3644" lon="4.67558">
        <ele>438</ele>
        <time>2016-01-06T19:09:29+01:00</time>
      </trkpt>
      <trkpt lat="45.36578" lon="4.67523">
        <ele>442</ele>
        <time>2016-01-06T19:09:34+01:00</time>
      </trkpt>
      <trkpt lat="45.36645" lon="4.67516">
        <ele>446</ele>
        <time>2016-01-06T19:09:39+01:00</time>
      </trkpt>
      <trkpt lat="45.36709" lon="4.67557">
        <ele>450</ele>
        <time>2016-01-06T19:09:44+01:00</time>
      </trkpt>
      <trkpt lat="45.36727" lon="4.67537">
        <ele>451</ele>
        <time>2016-01-06T19:09:49+01:00</time>
      </trkpt>
      <trkpt lat="45.36773" lon="4.67501">
        <ele>456</ele>
        <time>2016-01-06T19:09:54+01:00</time>
      </trkpt>
      <trkpt lat="45.36884" lon="4.6745">
        <ele>473</ele>
        <time>2016-01-06T19:09:59+01:00</time>
      </trkpt>
      <trkpt lat="45.36909" lon="4.67569">
        <ele>470</ele>
        <time>2016-01-06T19:10:04+01:00</time>
      </trkpt>
      <trkpt lat="45.37" lon="4.67736">
        <ele>474</ele>
        <time>2016-01-06T19:10:09+01:00</time>
      </trkpt>
      <trkpt lat="45.37192" lon="4.67814">
        <ele>454</ele>
        <time>2016-01-06T19:10:14+01:00</time>
      </trkpt>
      <trkpt lat="45.37253" lon="4.67861">
        <ele>445</ele>
        <time>2016-01-06T19:10:19+01:00</time>
      </trkpt>
      <trkpt lat="45.37328" lon="4.67985">
        <ele>432</ele>
        <time>2016-01-06T19:10:24+01:00</time>
      </trkpt>
      <trkpt lat="45.3737" lon="4.68016">
        <ele>429</ele>
        <time>2016-01-06T19:10:29+01:00</time>
      </trkpt>
      <trkpt lat="45.3741" lon="4.68052">
        <ele>425</ele>
        <time>2016-01-06T19:10:34+01:00</time>
      </trkpt>
      <trkpt lat="45.37436" lon="4.68126">
        <ele>420</ele>
        <time>2016-01-06T19:10:39+01:00</time>
      </trkpt>
      <trkpt lat="45.37468" lon="4.68237">
        <ele>414</ele>
        <time>2016-01-06T19:10:44+01:00</time>
      </trkpt>
      <trkpt lat="45.3753" lon="4.68344">
        <ele>409</ele>
        <time>2016-01-06T19:10:49+01:00</time>
      </trkpt>
      <trkpt lat="45.37541" lon="4.68374">
        <ele>407</ele>
        <time>2016-01-06T19:10:54+01:00</time>
      </trkpt>
      <trkpt lat="45.37598" lon="4.68481">
        <ele>400</ele>
        <time>2016-01-06T19:10:59+01:00</time>
      </trkpt>
      <trkpt lat="45.37688" lon="4.6852">
        <ele>397</ele>
        <time>2016-01-06T19:11:04+01:00</time>
      </trkpt>
      <trkpt lat="45.3774" lon="4.68502">
        <ele>399</ele>
        <time>2016-01-06T19:11:09+01:00</time>
      </trkpt>
      <trkpt lat="45.37773" lon="4.68435">
        <ele>404</ele>
        <time>2016-01-06T19:11:14+01:00</time>
      </trkpt>
      <trkpt lat="45.37837" lon="4.68456">
        <ele>402</ele>
        <time>2016-01-06T19:11:19+01:00</time>
      </trkpt>
      <trkpt lat="45.37878" lon="4.6841">
        <ele>407</ele>
        <time>2016-01-06T19:11:24+01:00</time>
      </trkpt>
      <trkpt lat="45.37954" lon="4.68427">
        <ele>409</ele>
        <time>2016-01-06T19:11:29+01:00</time>
      </trkpt>
      <trkpt lat="45.38071" lon="4.68549">
        <ele>408</ele>
        <time>2016-01-06T19:11:34+01:00</time>
      </trkpt>
      <trkpt lat="45.3811" lon="4.6864">
        <ele>402</ele>
        <time>2016-01-06T19:11:39+01:00</time>
      </trkpt>
      <trkpt lat="45.38169" lon="4.68685">
        <ele>399</ele>
        <time>2016-01-06T19:11:44+01:00</time>
      </trkpt>
      <trkpt lat="45.3823" lon="4.68807">
        <ele>390</ele>
        <time>2016-01-06T19:11:49+01:00</time>
      </trkpt>
      <trkpt lat="45.38255" lon="4.68817">
        <ele>389</ele>
        <time>2016-01-06T19:11:54+01:00</time>
      </trkpt>
      <trkpt lat="45.38273" lon="4.68873">
        <ele>387</ele>
        <time>2016-01-06T19:11:59+01:00</time>
      </trkpt>
      <trkpt lat="45.38337" lon="4.68937">
        <ele>385</ele>
        <time>2016-01-06T19:12:04+01:00</time>
      </trkpt>
      <trkpt lat="45.38409" lon="4.69038">
        <ele>384</ele>
        <time>2016-01-06T19:12:09+01:00</time>
      </trkpt>
      <trkpt lat="45.38434" lon="4.69158">
        <ele>383</ele>
        <time>2016-01-06T19:12:14+01:00</time>
      </trkpt>
      <trkpt lat="45.38477" lon="4.69244">
        <ele>383</ele>
        <time>2016-01-06T19:12:19+01:00</time>
      </trkpt>
      <trkpt lat="45.38545" lon="4.69329">
        <ele>385</ele>
        <time>2016-01-06T19:12:24+01:00</time>
      </trkpt>
      <trkpt lat="45.38629" lon="4.69456">
        <ele>388</ele>
        <time>2016-01-06T19:12:29+01:00</time>
      </trkpt>
      <trkpt lat="45.38626" lon="4.69527">
        <ele>387</ele>
        <time>2016-01-06T19:12:34+01:00</time>
      </trkpt>
      <trkpt lat="45.38649" lon="4.69528">
        <ele>387</ele>
        <time>2016-01-06T19:12:39+01:00</time>
      </trkpt>
      <trkpt lat="45.38655" lon="4.69575">
        <ele>386</ele>
        <time>2016-01-06T19:12:44+01:00</time>
      </trkpt>
      <trkpt lat="45.38649" lon="4.69634">
        <ele>383</ele>
        <time>2016-01-06T19:12:49+01:00</time>
      </trkpt>
      <trkpt lat="45.38645" lon="4.69728">
        <ele>378</ele>
        <time>2016-01-06T19:12:54+01:00</time>
      </trkpt>
      <trkpt lat="45.38607" lon="4.69867">
        <ele>369</ele>
        <time>2016-01-06T19:12:59+01:00</time>
      </trkpt>
      <trkpt lat="45.38555" lon="4.70103">
        <ele>362</ele>
        <time>2016-01-06T19:13:04+01:00</time>
      </trkpt>
      <trkpt lat="45.38634" lon="4.70172">
        <ele>358</ele>
        <time>2016-01-06T19:13:09+01:00</time>
      </trkpt>
      <trkpt lat="45.38679" lon="4.70194">
        <ele>356</ele>
        <time>2016-01-06T19:13:14+01:00</time>
      </trkpt>
      <trkpt lat="45.38728" lon="4.70171">
        <ele>355</ele>
        <time>2016-01-06T19:13:19+01:00</time>
      </trkpt>
      <trkpt lat="45.38757" lon="4.70203">
        <ele>351</ele>
        <time>2016-01-06T19:13:24+01:00</time>
      </trkpt>
      <trkpt lat="45.38804" lon="4.70252">
        <ele>345</ele>
        <time>2016-01-06T19:13:29+01:00</time>
      </trkpt>
      <trkpt lat="45.38843" lon="4.70259">
        <ele>341</ele>
        <time>2016-01-06T19:13:34+01:00</time>
      </trkpt>
      <trkpt lat="45.38882" lon="4.70246">
        <ele>336</ele>
        <time>2016-01-06T19:13:39+01:00</time>
      </trkpt>
      <trkpt lat="45.38906" lon="4.7016">
        <ele>336</ele>
        <time>2016-01-06T19:13:44+01:00</time>
      </trkpt>
      <trkpt lat="45.38932" lon="4.70136">
        <ele>337</ele>
        <time>2016-01-06T19:13:49+01:00</time>
      </trkpt>
      <trkpt lat="45.38957" lon="4.70169">
        <ele>337</ele>
        <time>2016-01-06T19:13:54+01:00</time>
      </trkpt>
      <trkpt lat="45.38962" lon="4.70233">
        <ele>338</ele>
        <time>2016-01-06T19:13:59+01:00</time>
      </trkpt>
      <trkpt lat="45.38985" lon="4.70319">
        <ele>344</ele>
        <time>2016-01-06T19:14:04+01:00</time>
      </trkpt>
      <trkpt lat="45.38951" lon="4.7046">
        <ele>342</ele>
        <time>2016-01-06T19:14:09+01:00</time>
      </trkpt>
      <trkpt lat="45.38991" lon="4.70656">
        <ele>352</ele>
        <time>2016-01-06T19:14:14+01:00</time>
      </trkpt>
      <trkpt lat="45.39019" lon="4.70724">
        <ele>354</ele>
        <time>2016-01-06T19:14:19+01:00</time>
      </trkpt>
      <trkpt lat="45.39114" lon="4.71117">
        <ele>350</ele>
        <time>2016-01-06T19:14:24+01:00</time>
      </trkpt>
      <trkpt lat="45.39155" lon="4.71259">
        <ele>346</ele>
        <time>2016-01-06T19:14:29+01:00</time>
      </trkpt>
      <trkpt lat="45.39158" lon="4.71415">
        <ele>345</ele>
        <time>2016-01-06T19:14:34+01:00</time>
      </trkpt>
      <trkpt lat="45.39149" lon="4.71553">
        <ele>344</ele>
        <time>2016-01-06T19:14:39+01:00</time>
      </trkpt>
      <trkpt lat="45.39153" lon="4.71615">
        <ele>345</ele>
        <time>2016-01-06T19:14:44+01:00</time>
      </trkpt>
      <trkpt lat="45.39129" lon="4.71701">
        <ele>343</ele>
        <time>2016-01-06T19:14:49+01:00</time>
      </trkpt>
      <trkpt lat="45.3912" lon="4.71764">
        <ele>341</ele>
        <time>2016-01-06T19:14:54+01:00</time>
      </trkpt>
      <trkpt lat="45.39075" lon="4.71885">
        <ele>338</ele>
        <time>2016-01-06T19:14:59+01:00</time>
      </trkpt>
      <trkpt lat="45.39046" lon="4.72166">
        <ele>326</ele>
        <time>2016-01-06T19:15:04+01:00</time>
      </trkpt>
      <trkpt lat="45.38974" lon="4.72404">
        <ele>321</ele>
        <time>2016-01-06T19:15:09+01:00</time>
      </trkpt>
      <trkpt lat="45.38887" lon="4.72563">
        <ele>313</ele>
        <time>2016-01-06T19:15:14+01:00</time>
      </trkpt>
      <trkpt lat="45.38859" lon="4.72624">
        <ele>311</ele>
        <time>2016-01-06T19:15:19+01:00</time>
      </trkpt>
      <trkpt lat="45.38857" lon="4.72664">
        <ele>311</ele>
        <time>2016-01-06T19:15:24+01:00</time>
      </trkpt>
      <trkpt lat="45.38815" lon="4.72649">
        <ele>308</ele>
        <time>2016-01-06T19:15:29+01:00</time>
      </trkpt>
      <trkpt lat="45.38789" lon="4.72686">
        <ele>308</ele>
        <time>2016-01-06T19:15:34+01:00</time>
      </trkpt>
      <trkpt lat="45.38665" lon="4.72931">
        <ele>304</ele>
        <time>2016-01-06T19:15:39+01:00</time>
      </trkpt>
      <trkpt lat="45.38624" lon="4.73045">
        <ele>292</ele>
        <time>2016-01-06T19:15:44+01:00</time>
      </trkpt>
      <trkpt lat="45.38574" lon="4.73158">
        <ele>278</ele>
        <time>2016-01-06T19:15:49+01:00</time>
      </trkpt>
      <trkpt lat="45.38569" lon="4.7322">
        <ele>266</ele>
        <time>2016-01-06T19:15:54+01:00</time>
      </trkpt>
      <trkpt lat="45.3853" lon="4.73212">
        <ele>266</ele>
        <time>2016-01-06T19:15:59+01:00</time>
      </trkpt>
      <trkpt lat="45.38452" lon="4.7324">
        <ele>239</ele>
        <time>2016-01-06T19:16:04+01:00</time>
      </trkpt>
      <trkpt lat="45.38361" lon="4.73122">
        <ele>228</ele>
        <time>2016-01-06T19:16:09+01:00</time>
      </trkpt>
      <trkpt lat="45.38368" lon="4.73057">
        <ele>236</ele>
        <time>2016-01-06T19:16:14+01:00</time>
      </trkpt>
      <trkpt lat="45.38385" lon="4.73024">
        <ele>241</ele>
        <time>2016-01-06T19:16:19+01:00</time>
      </trkpt>
      <trkpt lat="45.38393" lon="4.72971">
        <ele>242</ele>
        <time>2016-01-06T19:16:24+01:00</time>
      </trkpt>
      <trkpt lat="45.384" lon="4.72947">
        <ele>243</ele>
        <time>2016-01-06T19:16:29+01:00</time>
      </trkpt>
      <trkpt lat="45.3837" lon="4.72875">
        <ele>242</ele>
        <time>2016-01-06T19:16:34+01:00</time>
      </trkpt>
      <trkpt lat="45.3836" lon="4.72863">
        <ele>242</ele>
        <time>2016-01-06T19:16:39+01:00</time>
      </trkpt>
      <trkpt lat="45.3835" lon="4.72873">
        <ele>239</ele>
        <time>2016-01-06T19:16:44+01:00</time>
      </trkpt>
      <trkpt lat="45.38352" lon="4.72856">
        <ele>240</ele>
        <time>2016-01-06T19:16:49+01:00</time>
      </trkpt>
      <trkpt lat="45.38343" lon="4.7285">
        <ele>239</ele>
        <time>2016-01-06T19:16:54+01:00</time>
      </trkpt>
      <trkpt lat="45.38335" lon="4.72862">
        <ele>237</ele>
        <time>2016-01-06T19:16:59+01:00</time>
      </trkpt>
      <trkpt lat="45.38326" lon="4.72834">
        <ele>237</ele>
        <time>2016-01-06T19:17:04+01:00</time>
      </trkpt>
      <trkpt lat="45.38318" lon="4.72851">
        <ele>235</ele>
        <time>2016-01-06T19:17:09+01:00</time>
      </trkpt>
      <trkpt lat="45.38318" lon="4.72889">
        <ele>234</ele>
        <time>2016-01-06T19:17:14+01:00</time>
      </trkpt>
      <trkpt lat="45.38321" lon="4.72915">
        <ele>233</ele>
        <time>2016-01-06T19:17:19+01:00</time>
      </trkpt>
      <trkpt lat="45.38299" lon="4.72948">
        <ele>227</ele>
        <time>2016-01-06T19:17:24+01:00</time>
      </trkpt>
      <trkpt lat="45.38325" lon="4.72909">
        <ele>233</ele>
        <time>2016-01-06T19:17:29+01:00</time>
      </trkpt>
      <trkpt lat="45.38313" lon="4.7289">
        <ele>233</ele>
        <time>2016-01-06T19:17:34+01:00</time>
      </trkpt>
      <trkpt lat="45.38303" lon="4.72864">
        <ele>233</ele>
        <time>2016-01-06T19:17:39+01:00</time>
      </trkpt>
      <trkpt lat="45.38294" lon="4.7285">
        <ele>232</ele>
        <time>2016-01-06T19:17:44+01:00</time>
      </trkpt>
      <trkpt lat="45.38288" lon="4.72826">
        <ele>232</ele>
        <time>2016-01-06T19:17:49+01:00</time>
      </trkpt>
      <trkpt lat="45.38278" lon="4.72807">
        <ele>231</ele>
        <time>2016-01-06T19:17:54+01:00</time>
      </trkpt>
      <trkpt lat="45.38268" lon="4.72801">
        <ele>230</ele>
        <time>2016-01-06T19:17:59+01:00</time>
      </trkpt>
      <trkpt lat="45.38257" lon="4.72803">
        <ele>228</ele>
        <time>2016-01-06T19:18:04+01:00</time>
      </trkpt>
      <trkpt lat="45.3824" lon="4.72801">
        <ele>227</ele>
        <time>2016-01-06T19:18:09+01:00</time>
      </trkpt>
      <trkpt lat="45.38252" lon="4.72765">
        <ele>229</ele>
        <time>2016-01-06T19:18:14+01:00</time>
      </trkpt>
      <trkpt lat="45.38219" lon="4.72723">
        <ele>232</ele>
        <time>2016-01-06T19:18:19+01:00</time>
      </trkpt>
      <trkpt lat="45.38192" lon="4.727">
        <ele>231</ele>
        <time>2016-01-06T19:18:24+01:00</time>
      </trkpt>
      <trkpt lat="45.38181" lon="4.72677">
        <ele>231</ele>
        <time>2016-01-06T19:18:29+01:00</time>
      </trkpt>
      <trkpt lat="45.38165" lon="4.72676">
        <ele>229</ele>
        <time>2016-01-06T19:18:34+01:00</time>
      </trkpt>
      <trkpt lat="45.38171" lon="4.72688">
        <ele>229</ele>
        <time>2016-01-06T19:18:39+01:00</time>
      </trkpt>
    </trkseg>
  </trk>
</gpx>